createdAt,value
2022-08-16T00:00:38.792Z,18.13
2022-08-16T00:03:06.669Z,21.25
2022-08-16T00:08:35.859Z,18.42
2022-08-16T00:11:02.894Z,20.10
2022-08-16T00:13:29.867Z,22.98
2022-08-16T00:15:57.193Z,20.20
2022-08-16T00:18:29.892Z,19.52
2022-08-16T00:20:59.523Z,19.73
2022-08-16T00:23:34.856Z,18.27
2022-08-16T00:26:36.006Z,18.10
2022-08-16T00:28:57.062Z,20.98
2022-08-16T00:31:26.756Z,21.27
2022-08-16T00:34:18.546Z,18.15
2022-08-16T00:36:47.357Z,19.23
2022-08-16T00:39:16.424Z,16.95
2022-08-16T00:41:46.782Z,20.25
2022-08-16T00:44:15.896Z,19.75
2022-08-16T00:47:10.258Z,19.77
2022-08-16T00:49:39.449Z,20.23
2022-08-16T00:52:29.441Z,20.48
2022-08-16T00:54:58.937Z,22.10
2022-08-16T00:57:58.353Z,18.92
2022-08-16T01:00:20.250Z,19.95
2022-08-16T01:02:51.590Z,18.40
2022-08-16T01:05:19.512Z,21.65
2022-08-16T01:07:53.351Z,22.95
2022-08-16T01:10:31.236Z,19.35
2022-08-16T01:13:22.011Z,20.67
2022-08-16T01:15:53.918Z,24.35
2022-08-16T01:18:39.306Z,20.38
2022-08-16T01:21:22.936Z,22.50
2022-08-16T01:23:58.203Z,20.30
2022-08-16T01:26:33.632Z,29.35
2022-08-16T01:29:09.876Z,26.88
2022-08-16T01:31:42.765Z,19.63
2022-08-16T01:34:23.242Z,22.90
2022-08-16T01:36:59.603Z,20.67
2022-08-16T01:39:28.669Z,23.50
2022-08-16T01:41:55.978Z,23.98
2022-08-16T01:44:23.357Z,21.50
2022-08-16T01:47:06.043Z,19.25
2022-08-16T01:49:45.544Z,21.00
2022-08-16T01:52:30.087Z,25.77
2022-08-16T01:57:56.215Z,21.08
2022-08-16T02:00:28.943Z,18.80
2022-08-16T02:02:58.977Z,20.00
2022-08-16T02:05:26.031Z,19.88
2022-08-16T02:07:58.468Z,18.40
2022-08-16T02:10:26.546Z,20.88
2022-08-16T02:13:00.081Z,18.73
2022-08-16T02:15:30.447Z,21.23
2022-08-16T02:18:01.232Z,21.58
2022-08-16T02:20:31.502Z,22.67
2022-08-16T02:23:01.575Z,21.52
2022-08-16T02:25:50.746Z,27.70
2022-08-16T02:28:17.341Z,26.10
2022-08-16T02:30:50.931Z,24.48
2022-08-16T02:33:24.373Z,25.60
2022-08-16T02:35:55.440Z,24.17
2022-08-16T02:38:29.334Z,24.08
2022-08-16T02:41:01.932Z,29.20
2022-08-16T02:43:33.138Z,27.13
2022-08-16T02:46:07.662Z,27.00
2022-08-16T02:48:39.094Z,26.27
2022-08-16T02:51:10.730Z,30.17
2022-08-16T02:53:43.625Z,28.57
2022-08-16T02:56:15.192Z,29.95
2022-08-16T02:58:47.767Z,26.80
2022-08-16T03:01:25.475Z,27.10
2022-08-16T03:04:30.216Z,23.00
2022-08-16T03:06:56.446Z,30.42
2022-08-16T03:09:36.695Z,25.38
2022-08-16T03:12:06.093Z,21.92
2022-08-16T03:14:34.829Z,27.25
2022-08-16T03:17:04.012Z,28.92
2022-08-16T03:19:47.966Z,28.48
2022-08-16T03:22:29.224Z,28.58
2022-08-16T03:25:07.302Z,30.63
2022-08-16T03:27:39.018Z,26.23
2022-08-16T03:30:16.681Z,36.88
2022-08-16T03:32:52.550Z,25.13
2022-08-16T03:35:33.048Z,31.05
2022-08-16T03:38:33.027Z,25.52
2022-08-16T03:40:57.844Z,26.08
2022-08-16T03:43:51.339Z,27.17
2022-08-16T03:46:44.521Z,26.75
2022-08-16T03:49:05.311Z,31.88
2022-08-16T03:51:34.578Z,23.83
2022-08-16T03:54:12.437Z,29.85
2022-08-16T03:56:58.010Z,27.42
2022-08-16T03:59:30.117Z,27.27
2022-08-16T04:02:01.240Z,27.73
2022-08-16T04:04:33.016Z,27.80
2022-08-16T04:07:04.253Z,28.75
2022-08-16T04:12:11.395Z,24.45
2022-08-16T04:14:56.781Z,24.27
2022-08-16T04:17:26.871Z,25.67
2022-08-16T04:19:58.380Z,27.02
2022-08-16T04:22:27.954Z,25.00
2022-08-16T04:25:00.951Z,30.67
2022-08-16T04:27:33.712Z,24.25
2022-08-16T04:30:03.909Z,25.33
2022-08-16T04:32:37.913Z,26.90
2022-08-16T04:35:16.182Z,38.20
2022-08-16T04:37:45.970Z,39.50
2022-08-16T04:40:39.080Z,28.75
2022-08-16T04:43:07.376Z,38.95
2022-08-16T04:45:37.000Z,33.30
2022-08-16T04:48:22.040Z,28.15
2022-08-16T04:51:11.650Z,28.98
2022-08-16T04:53:48.176Z,26.15
2022-08-16T04:56:18.645Z,28.35
2022-08-16T04:58:47.322Z,39.35
2022-08-16T05:01:18.121Z,24.90
2022-08-16T05:04:00.781Z,27.75
2022-08-16T05:06:45.382Z,32.30
2022-08-16T05:09:36.337Z,26.38
2022-08-16T05:12:06.064Z,25.85
2022-08-16T05:14:45.606Z,29.77
2022-08-16T05:17:18.554Z,24.05
2022-08-16T05:19:46.705Z,27.75
2022-08-16T05:22:28.470Z,25.15
2022-08-16T05:24:59.149Z,23.92
2022-08-16T05:27:26.317Z,23.13
2022-08-16T05:29:57.046Z,27.70
2022-08-16T05:32:33.722Z,23.55
2022-08-16T05:35:10.961Z,28.23
2022-08-16T05:37:43.589Z,22.65
2022-08-16T05:40:14.696Z,24.63
2022-08-16T05:42:46.040Z,23.98
2022-08-16T05:45:22.206Z,23.83
2022-08-16T05:48:00.265Z,26.45
2022-08-16T05:50:43.614Z,20.70
2022-08-16T05:53:10.504Z,21.95
2022-08-16T05:55:48.725Z,19.58
2022-08-16T05:58:31.558Z,22.70
2022-08-16T06:00:59.632Z,22.17
2022-08-16T06:03:29.582Z,22.35
2022-08-16T06:06:01.737Z,22.65
2022-08-16T06:08:44.769Z,18.27
2022-08-16T06:11:15.141Z,20.00
2022-08-16T06:13:47.513Z,21.05
2022-08-16T06:16:19.340Z,19.08
2022-08-16T06:18:51.063Z,19.80
2022-08-16T06:21:23.766Z,18.35
2022-08-16T06:23:56.785Z,20.38
2022-08-16T06:26:36.940Z,19.70
2022-08-16T06:29:07.749Z,17.17
2022-08-16T06:31:48.871Z,15.18
2022-08-16T06:34:55.778Z,23.42
2022-08-16T06:37:06.100Z,19.83
2022-08-16T06:39:49.521Z,15.57
2022-08-16T06:42:39.613Z,18.02
2022-08-16T06:45:31.138Z,14.30
2022-08-16T06:48:07.977Z,19.33
2022-08-16T06:50:36.867Z,18.63
2022-08-16T06:53:09.050Z,16.05
2022-08-16T06:55:44.612Z,17.52
2022-08-16T06:58:22.056Z,22.10
2022-08-16T07:00:58.087Z,19.73
2022-08-16T07:03:32.578Z,17.00
2022-08-16T07:06:04.255Z,18.98
2022-08-16T07:08:36.230Z,15.00
2022-08-16T07:11:05.296Z,16.10
2022-08-16T07:16:27.838Z,17.52
2022-08-16T07:18:59.046Z,19.20
2022-08-16T07:24:29.654Z,15.25
2022-08-16T07:27:00.475Z,14.35
2022-08-16T07:29:31.604Z,16.33
2022-08-16T07:32:01.134Z,22.33
2022-08-16T07:34:35.072Z,13.32
2022-08-16T07:37:10.230Z,18.80
2022-08-16T07:39:54.619Z,18.48
2022-08-16T07:42:28.354Z,15.05
2022-08-16T07:45:07.604Z,16.33
2022-08-16T07:47:40.171Z,13.10
2022-08-16T07:50:09.782Z,19.08
2022-08-16T07:52:56.902Z,14.90
2022-08-16T07:55:45.569Z,17.73
2022-08-16T07:58:33.548Z,17.30
2022-08-16T08:01:10.563Z,19.30
2022-08-16T08:03:48.952Z,16.70
2022-08-16T08:06:21.272Z,19.95
2022-08-16T08:08:57.414Z,13.73
2022-08-16T08:11:29.351Z,12.07
2022-08-16T08:14:03.609Z,13.38
2022-08-16T08:16:35.706Z,15.02
2022-08-16T08:19:04.454Z,13.57
2022-08-16T08:21:59.979Z,15.77
2022-08-16T08:24:33.190Z,10.55
2022-08-16T08:27:04.884Z,12.35
2022-08-16T08:32:58.719Z,9.23
2022-08-16T08:35:03.542Z,13.57
2022-08-16T08:37:54.776Z,10.82
2022-08-16T08:40:28.594Z,11.35
2022-08-16T08:43:12.157Z,19.58
2022-08-16T08:45:46.920Z,7.57
2022-08-16T08:48:33.791Z,10.57
2022-08-16T08:51:11.416Z,6.45
2022-08-16T08:53:57.714Z,7.35
2022-08-16T08:56:34.938Z,7.25
2022-08-16T08:59:21.014Z,8.90
2022-08-16T09:01:56.509Z,9.23
2022-08-16T09:04:28.452Z,5.93
2022-08-16T09:06:58.484Z,8.93
2022-08-16T09:09:33.753Z,6.68
2022-08-16T09:12:07.023Z,7.97
2022-08-16T09:15:00.612Z,6.72
2022-08-16T09:17:51.877Z,5.80
2022-08-16T09:20:17.423Z,5.70
2022-08-16T09:22:51.334Z,8.57
2022-08-16T09:25:25.673Z,7.75
2022-08-16T09:27:58.056Z,7.10
2022-08-16T09:30:42.976Z,6.72
2022-08-16T09:33:11.900Z,6.80
2022-08-16T09:35:42.304Z,9.07
2022-08-16T09:38:31.525Z,7.65
2022-08-16T09:41:01.479Z,6.40
2022-08-16T09:43:59.662Z,5.22
2022-08-16T09:46:33.447Z,6.18
2022-08-16T09:49:03.715Z,7.72
2022-08-16T09:51:37.379Z,5.60
2022-08-16T09:54:06.050Z,10.98
2022-08-16T09:56:38.259Z,8.48
2022-08-16T09:59:08.489Z,5.75
2022-08-16T10:01:36.955Z,6.60
2022-08-16T10:04:13.051Z,12.32
2022-08-16T10:09:25.590Z,5.72
2022-08-16T10:12:31.408Z,7.43
2022-08-16T10:15:00.271Z,10.57
2022-08-16T10:17:28.056Z,6.45
2022-08-16T10:19:56.151Z,8.07
2022-08-16T10:22:23.541Z,10.63
2022-08-16T10:24:56.037Z,6.97
2022-08-16T10:27:29.947Z,7.60
2022-08-16T10:30:26.077Z,10.38
2022-08-16T10:32:56.222Z,10.90
2022-08-16T10:35:23.908Z,5.38
2022-08-16T10:37:59.515Z,5.50
2022-08-16T10:40:30.094Z,6.38
2022-08-16T10:43:00.355Z,8.57
2022-08-16T10:45:37.138Z,5.53
2022-08-16T10:48:27.748Z,5.68
2022-08-16T10:50:58.235Z,8.77
2022-08-16T10:53:32.399Z,4.82
2022-08-16T10:56:02.496Z,5.75
2022-08-16T10:58:34.368Z,5.78
2022-08-16T11:03:57.469Z,5.78
2022-08-16T11:06:26.742Z,6.03
2022-08-16T11:14:31.961Z,9.57
2022-08-16T11:17:09.291Z,7.95
2022-08-16T11:20:00.719Z,5.25
2022-08-16T11:22:42.019Z,5.72
2022-08-16T11:25:16.227Z,5.72
2022-08-16T11:28:01.133Z,6.82
2022-08-16T11:30:37.799Z,6.03
2022-08-16T11:33:07.597Z,4.93
2022-08-16T11:38:52.010Z,6.30
2022-08-16T11:41:10.630Z,4.82
2022-08-16T11:43:41.777Z,4.72
2022-08-16T11:46:44.189Z,11.57
2022-08-16T11:48:58.897Z,5.30
2022-08-16T11:51:25.829Z,5.25
2022-08-16T11:53:53.304Z,4.38
2022-08-16T11:56:37.623Z,5.63
2022-08-16T11:59:09.995Z,8.40
2022-08-16T12:01:54.946Z,6.82
2022-08-16T12:04:28.041Z,4.47
2022-08-16T12:06:55.156Z,6.75
2022-08-16T12:09:24.862Z,6.07
2022-08-16T12:11:54.322Z,8.85
2022-08-16T12:14:22.871Z,5.70
2022-08-16T12:16:55.463Z,5.55
2022-08-16T12:19:35.209Z,6.88
2022-08-16T12:22:05.830Z,8.88
2022-08-16T12:24:47.986Z,11.45
2022-08-16T12:27:24.201Z,5.57
2022-08-16T12:29:58.409Z,8.60
2022-08-16T12:32:38.038Z,6.20
2022-08-16T12:35:12.128Z,7.22
2022-08-16T12:37:39.764Z,4.35
2022-08-16T12:40:17.243Z,5.63
2022-08-16T12:42:54.917Z,5.20
2022-08-16T12:45:30.265Z,6.05
2022-08-16T12:48:34.519Z,7.25
2022-08-16T12:51:19.608Z,4.80
2022-08-16T12:53:48.395Z,11.63
2022-08-16T12:56:16.787Z,4.88
2022-08-16T12:58:51.532Z,5.63
2022-08-16T13:01:22.461Z,4.35
2022-08-16T13:03:59.136Z,9.85
2022-08-16T13:06:33.605Z,7.32
2022-08-16T13:09:02.479Z,6.70
2022-08-16T13:11:41.446Z,7.57
2022-08-16T13:14:30.741Z,6.47
2022-08-16T13:16:57.958Z,7.88
2022-08-16T13:19:24.963Z,6.07
2022-08-16T13:22:02.272Z,5.30
2022-08-16T13:24:30.060Z,6.25
2022-08-16T13:26:57.215Z,6.82
2022-08-16T13:29:24.322Z,6.90
2022-08-16T13:31:51.095Z,7.72
2022-08-16T13:34:19.057Z,7.43
2022-08-16T13:36:49.409Z,6.95
2022-08-16T13:39:21.020Z,9.32
2022-08-16T13:41:54.124Z,5.68
2022-08-16T13:44:21.528Z,8.10
2022-08-16T13:46:48.467Z,5.05
2022-08-16T13:49:15.681Z,4.72
2022-08-16T13:51:43.137Z,3.22
2022-08-16T13:54:10.643Z,7.53
2022-08-16T13:56:39.532Z,5.45
2022-08-16T13:59:20.177Z,6.57
2022-08-16T14:01:55.725Z,9.63
2022-08-16T14:04:35.415Z,5.28
2022-08-16T14:07:05.750Z,6.45
2022-08-16T14:09:34.528Z,6.13
2022-08-16T14:12:09.546Z,3.47
2022-08-16T14:14:36.936Z,8.77
2022-08-16T14:17:04.381Z,6.85
2022-08-16T14:19:31.461Z,5.05
2022-08-16T14:22:15.479Z,4.32
2022-08-16T14:24:50.249Z,4.93
2022-08-16T14:27:19.599Z,3.95
2022-08-16T14:29:50.366Z,4.60
2022-08-16T14:32:33.539Z,6.55
2022-08-16T14:35:07.399Z,6.18
2022-08-16T14:37:35.525Z,4.57
2022-08-16T14:40:03.350Z,11.60
2022-08-16T14:42:30.447Z,5.40
2022-08-16T14:44:57.767Z,7.20
2022-08-16T14:47:34.228Z,3.88
2022-08-16T14:50:02.699Z,6.50
2022-08-16T14:52:54.096Z,5.35
2022-08-16T14:55:16.763Z,5.50
2022-08-16T14:57:43.678Z,7.35
2022-08-16T15:00:12.931Z,6.85
2022-08-16T15:02:42.843Z,9.02
2022-08-16T15:05:11.418Z,4.93
2022-08-16T15:07:40.276Z,5.90
2022-08-16T15:10:21.497Z,5.85
2022-08-16T15:12:56.358Z,10.00
2022-08-16T15:15:28.338Z,6.53
2022-08-16T15:17:56.493Z,6.00
2022-08-16T15:20:29.213Z,6.43
2022-08-16T15:22:58.251Z,5.93
2022-08-16T15:25:44.423Z,4.13
2022-08-16T15:28:31.029Z,8.55
2022-08-16T15:31:04.655Z,4.80
2022-08-16T15:33:44.282Z,9.10
2022-08-16T15:36:18.328Z,8.30
2022-08-16T15:39:05.558Z,8.52
2022-08-16T15:41:42.537Z,5.53
2022-08-16T15:44:21.239Z,4.32
2022-08-16T15:46:55.301Z,3.58
2022-08-16T15:49:37.917Z,6.63
2022-08-16T15:52:29.352Z,7.53
2022-08-16T15:54:58.091Z,5.40
2022-08-16T15:57:27.238Z,6.00
2022-08-16T15:59:55.542Z,8.65
2022-08-16T16:02:30.863Z,8.45
2022-08-16T16:05:06.665Z,9.23
2022-08-16T16:07:35.016Z,9.50
2022-08-16T16:10:04.907Z,4.68
2022-08-16T16:12:54.264Z,7.82
2022-08-16T16:15:25.305Z,7.45
2022-08-16T16:17:54.043Z,6.40
2022-08-16T16:20:24.518Z,9.25
2022-08-16T16:22:57.225Z,5.05
2022-08-16T16:25:25.114Z,5.35
2022-08-16T16:27:55.353Z,4.65
2022-08-16T16:30:37.827Z,6.53
2022-08-16T16:33:11.575Z,5.18
2022-08-16T16:35:42.379Z,11.00
2022-08-16T16:38:15.571Z,4.70
2022-08-16T16:40:46.271Z,7.95
2022-08-16T16:43:16.145Z,4.70
2022-08-16T16:45:44.285Z,9.18
2022-08-16T16:48:12.493Z,6.50
2022-08-16T16:50:44.428Z,11.07
2022-08-16T16:53:16.912Z,8.35
2022-08-16T16:55:51.596Z,8.10
2022-08-16T16:58:43.184Z,8.10
2022-08-16T17:01:11.161Z,8.32
2022-08-16T17:03:38.881Z,7.03
2022-08-16T17:06:09.078Z,8.30
2022-08-16T17:08:37.893Z,6.53
2022-08-16T17:11:10.051Z,8.65
2022-08-16T17:13:37.435Z,8.73
2022-08-16T17:16:05.345Z,8.25
2022-08-16T17:19:14.637Z,12.38
2022-08-16T17:21:20.286Z,7.65
2022-08-16T17:23:58.463Z,7.97
2022-08-16T17:26:30.194Z,6.97
2022-08-16T17:29:02.250Z,9.85
2022-08-16T17:31:43.101Z,12.65
2022-08-16T17:34:30.283Z,11.27
2022-08-16T17:37:05.325Z,10.52
2022-08-16T17:39:45.360Z,7.65
2022-08-16T17:42:25.756Z,8.50
2022-08-16T17:44:52.771Z,8.82
2022-08-16T17:47:21.750Z,10.10
2022-08-16T17:49:48.723Z,8.13
2022-08-16T17:52:15.743Z,10.52
2022-08-16T17:54:42.637Z,6.50
2022-08-16T17:57:09.423Z,23.77
2022-08-16T17:59:41.039Z,10.77
2022-08-16T18:02:42.175Z,8.15
2022-08-16T18:04:56.047Z,9.45
2022-08-16T18:07:23.199Z,9.45
2022-08-16T18:09:52.481Z,8.98
2022-08-16T18:12:51.259Z,10.07
2022-08-16T18:15:11.969Z,11.43
2022-08-16T18:17:39.443Z,10.27
2022-08-16T18:20:28.192Z,8.48
2022-08-16T18:23:01.734Z,11.65
2022-08-16T18:25:28.677Z,12.88
2022-08-16T18:27:55.408Z,8.75
2022-08-16T18:30:22.192Z,12.05
2022-08-16T18:32:50.848Z,10.43
2022-08-16T18:35:21.386Z,7.63
2022-08-16T18:37:48.535Z,7.25
2022-08-16T18:40:16.415Z,7.65
2022-08-16T18:43:05.644Z,8.80
2022-08-16T18:45:36.947Z,5.57
2022-08-16T18:48:05.600Z,10.90
2022-08-16T18:51:03.139Z,7.70
2022-08-16T18:53:22.235Z,11.10
2022-08-16T18:55:52.205Z,7.30
2022-08-16T18:58:19.054Z,8.13
2022-08-16T19:00:56.717Z,9.13
2022-08-16T19:03:32.756Z,12.32
2022-08-16T19:06:04.558Z,9.43
2022-08-16T19:08:32.268Z,11.13
2022-08-16T19:10:59.036Z,10.25
2022-08-16T19:13:28.335Z,7.95
2022-08-16T19:15:58.454Z,9.90
2022-08-16T19:18:27.578Z,9.95
2022-08-16T19:20:59.395Z,7.70
2022-08-16T19:23:29.882Z,11.68
2022-08-16T19:26:02.415Z,7.90
2022-08-16T19:28:51.244Z,8.85
2022-08-16T19:31:26.135Z,8.68
2022-08-16T19:33:56.373Z,9.20
2022-08-16T19:36:31.502Z,13.18
2022-08-16T19:39:04.668Z,10.55
2022-08-16T19:41:36.392Z,8.57
2022-08-16T19:44:04.225Z,13.18
2022-08-16T19:46:31.950Z,11.10
2022-08-16T19:48:58.754Z,14.13
2022-08-16T19:51:25.675Z,11.10
2022-08-16T19:53:52.570Z,11.38
2022-08-16T19:56:21.613Z,9.23
2022-08-16T19:59:16.262Z,8.15
2022-08-16T20:01:41.129Z,8.60
2022-08-16T20:04:12.446Z,9.75
2022-08-16T20:06:41.509Z,10.25
2022-08-16T20:09:10.538Z,10.98
2022-08-16T20:11:41.836Z,8.45
2022-08-16T20:14:08.654Z,8.55
2022-08-16T20:16:35.842Z,11.48
2022-08-16T20:19:04.791Z,11.85
2022-08-16T20:21:31.730Z,14.10
2022-08-16T20:24:22.594Z,6.00
2022-08-16T20:26:45.496Z,12.43
2022-08-16T20:29:12.304Z,8.10
2022-08-16T20:31:39.368Z,14.18
2022-08-16T20:34:07.475Z,8.82
2022-08-16T20:36:34.323Z,14.93
2022-08-16T20:39:03.876Z,8.88
2022-08-16T20:41:31.876Z,8.68
2022-08-16T20:43:58.721Z,8.48
2022-08-16T20:46:26.218Z,8.68
2022-08-16T20:48:53.020Z,9.43
2022-08-16T20:51:19.838Z,8.07
2022-08-16T20:53:46.720Z,8.50
2022-08-16T20:56:13.699Z,10.02
2022-08-16T20:58:40.672Z,10.13
2022-08-16T21:01:08.469Z,9.43
2022-08-16T21:03:36.001Z,10.38
2022-08-16T21:06:04.634Z,6.40
2022-08-16T21:08:53.552Z,10.48
2022-08-16T21:11:21.902Z,16.77
2022-08-16T21:13:50.409Z,10.63
2022-08-16T21:16:22.662Z,9.82
2022-08-16T21:18:49.740Z,6.72
2022-08-16T21:21:16.920Z,9.40
2022-08-16T21:23:44.019Z,10.10
2022-08-16T21:26:11.295Z,7.57
2022-08-16T21:28:42.957Z,6.18
2022-08-16T21:31:16.178Z,8.32
2022-08-16T21:33:44.496Z,10.60
2022-08-16T21:36:14.584Z,10.60
2022-08-16T21:38:41.706Z,8.77
2022-08-16T21:41:10.358Z,11.98
2022-08-16T21:43:37.394Z,9.02
2022-08-16T21:46:06.764Z,9.48
2022-08-16T21:48:35.806Z,11.48
2022-08-16T21:51:14.043Z,10.27
2022-08-16T21:53:43.574Z,10.80
2022-08-16T21:56:16.938Z,10.80
2022-08-16T21:58:46.627Z,9.38
2022-08-16T22:01:21.512Z,9.73
2022-08-16T22:03:48.843Z,8.85
2022-08-16T22:06:31.351Z,10.40
2022-08-16T22:08:58.337Z,9.35
2022-08-16T22:11:25.478Z,16.98
2022-08-16T22:13:58.735Z,7.78
2022-08-16T22:18:55.160Z,10.70
2022-08-16T22:21:22.011Z,11.68
2022-08-16T22:23:58.631Z,8.60
2022-08-16T22:26:31.887Z,14.05
2022-08-16T22:29:00.859Z,10.13
2022-08-16T22:31:27.995Z,9.15
2022-08-16T22:33:56.705Z,15.90
2022-08-16T22:36:24.142Z,10.98
2022-08-16T22:38:59.327Z,11.20
2022-08-16T22:41:31.789Z,10.60
2022-08-16T22:43:59.730Z,14.63
2022-08-16T22:46:26.838Z,10.15
2022-08-16T22:48:53.918Z,10.48
2022-08-16T22:51:22.201Z,11.98
2022-08-16T22:53:49.301Z,7.65
2022-08-16T22:56:17.555Z,10.52
2022-08-16T22:58:46.487Z,13.30
2022-08-16T23:01:16.139Z,9.70
2022-08-16T23:03:43.433Z,9.38
2022-08-16T23:06:13.760Z,9.07
2022-08-16T23:08:41.778Z,8.48
2022-08-16T23:11:21.130Z,10.27
2022-08-16T23:13:54.514Z,10.10
2022-08-16T23:16:33.239Z,12.40
2022-08-16T23:19:10.688Z,13.48
2022-08-16T23:21:40.797Z,9.18
2022-08-16T23:24:08.932Z,8.85
2022-08-16T23:26:47.692Z,11.63
2022-08-16T23:29:23.125Z,11.27
2022-08-16T23:31:58.368Z,9.63
2022-08-16T23:34:27.177Z,11.55
2022-08-16T23:36:54.843Z,8.10
2022-08-16T23:39:22.004Z,9.57
2022-08-16T23:41:48.834Z,13.30
2022-08-16T23:44:42.236Z,9.93
2022-08-16T23:47:02.575Z,11.32
2022-08-16T23:50:00.829Z,9.20
2022-08-16T23:52:19.299Z,14.32
2022-08-16T23:55:06.489Z,14.32
2022-08-16T23:57:33.291Z,11.65
